Time;durP1;ratioP1;P1;durP2;ratioP2;P2;SDS_P1;SDS_P2;PMS_P1;PMS_P2;Temp;Humidity;BMP_temperature;BMP_pressure;BME280_temperature;BME280_humidity;BME280_pressure;Samples;Min_cycle;Max_cycle;Signal;HPM_P1;HPM_P2
2022/07/13 00:03:16;;;;;;;;;;;16.90;99.90;;;15.67;82.29;96404.81;10488832;28;2124;-72
2022/07/13 00:08:19;;;;;;;;;;;16.90;99.90;;;15.58;82.42;96398.38;10483393;28;1823;-73
2022/07/13 00:13:23;;;;;;;;;;;16.80;99.90;;;15.50;83.38;96398.22;10465470;28;2062;-71
2022/07/13 00:18:27;;;;;;;;;;;16.70;99.90;;;15.43;83.86;96392.34;10468700;28;1899;-73
2022/07/13 00:23:31;;;;;;;;;;;16.60;99.90;;;15.39;84.92;96384.78;10464857;28;1914;-72
2022/07/13 00:28:34;;;;;;;;;;;16.60;99.90;;;15.38;85.12;96379.66;10468841;28;2196;-73
2022/07/13 00:33:38;;;;;;;;;;;16.50;99.90;;;15.38;85.96;96383.19;10455111;28;2165;-72
2022/07/13 00:38:41;;;;;;;;;;;16.50;99.90;;;15.30;86.80;96369.47;10464974;28;2049;-72
2022/07/13 00:43:44;;;;;;;;;;;16.40;99.90;;;15.27;86.88;96378.16;10465588;28;1910;-72
2022/07/13 00:48:48;;;;;;;;;;;16.40;99.90;;;15.34;87.72;96378.66;10464582;28;1892;-72
2022/07/13 00:53:51;;;;;;;;;;;16.40;99.90;;;15.40;88.28;96374.78;10465870;28;1916;-72
2022/07/13 00:58:54;;;;;;;;;;;16.40;99.90;;;15.25;88.64;96370.34;10464621;28;1872;-72
2022/07/13 01:03:57;;;;;;;;;;;16.70;99.90;;;15.22;89.23;96365.50;10467807;28;1986;-72
2022/07/13 01:09:00;;;;;;;;;;;16.40;99.90;;;15.21;90.09;96371.22;10462187;28;1832;-73
2022/07/13 01:14:04;;;;;;;;;;;16.30;99.90;;;15.21;89.99;96373.94;10462158;28;1828;-72
2022/07/13 01:19:08;;;;;;;;;;;16.30;99.90;;;15.07;90.63;96369.16;10468183;28;1642;-71
2022/07/13 01:24:13;;;;;;;;;;;16.20;99.90;;;14.97;91.02;96369.28;10465839;28;1987;-72
2022/07/13 01:29:18;;;;;;;;;;;16.10;99.90;;;14.90;92.18;96362.63;10467305;28;1831;-74
2022/07/13 01:34:25;;;;;;;;;;;16.00;99.90;;;14.84;93.34;96373.50;10467897;28;2042;-73
2022/07/13 01:39:33;;;;;;;;;;;16.00;99.90;;;14.84;93.93;96368.06;10468529;28;2168;-72
2022/07/13 01:44:43;;;;;;;;;;;16.00;99.90;;;14.84;94.07;96364.56;10489028;28;1981;-72
2022/07/13 01:49:46;;;;;;;;;;;16.00;99.90;;;14.77;93.90;96369.50;10473489;28;1947;-72
2022/07/13 01:54:49;;;;;;;;;;;15.90;99.90;;;14.88;95.47;96374.50;10465262;28;2018;-72
2022/07/13 01:59:52;;;;;;;;;;;15.90;99.90;;;14.85;95.52;96368.88;10478374;28;1923;-72
2022/07/13 02:04:55;;;;;;;;;;;16.00;99.90;;;14.76;95.29;96373.28;10488889;28;1990;-73
2022/07/13 02:09:58;;;;;;;;;;;15.90;99.90;;;14.70;95.92;96369.03;10469571;28;2049;-72
2022/07/13 02:15:02;;;;;;;;;;;15.90;99.90;;;14.70;96.52;96366.34;10472566;28;2012;-71
2022/07/13 02:20:06;;;;;;;;;;;15.80;99.90;;;14.68;97.14;96365.78;10490767;28;1911;-73
2022/07/13 02:25:10;;;;;;;;;;;15.80;99.90;;;14.75;97.53;96367.06;10472098;28;2038;-72
2022/07/13 02:30:14;;;;;;;;;;;15.80;99.90;;;14.72;96.68;96364.13;10470012;28;1899;-72
2022/07/13 02:35:17;;;;;;;;;;;15.80;99.90;;;14.85;96.05;96366.16;10471234;28;1924;-72
2022/07/13 02:40:21;;;;;;;;;;;15.90;99.90;;;14.83;97.43;96363.75;10469778;28;1955;-74
2022/07/13 02:45:25;;;;;;;;;;;15.80;99.90;;;14.91;96.33;96375.84;10484535;28;2002;-73
2022/07/13 02:50:28;;;;;;;;;;;15.90;99.90;;;14.90;95.55;96368.03;10489133;28;1982;-73
2022/07/13 02:55:31;;;;;;;;;;;16.00;99.90;;;14.81;95.78;96371.34;10465312;28;1812;-72
2022/07/13 03:00:34;;;;;;;;;;;15.90;99.90;;;14.76;96.47;96357.03;10473391;28;1946;-73
2022/07/13 03:05:37;;;;;;;;;;;15.90;99.90;;;14.61;97.53;96355.28;10472425;28;2033;-71
2022/07/13 03:10:40;;;;;;;;;;;15.80;99.90;;;14.68;97.40;96349.56;10486162;28;1899;-72
2022/07/13 03:15:44;;;;;;;;;;;15.70;99.90;;;14.52;97.81;96351.59;10464064;28;2001;-71
2022/07/13 03:20:47;;;;;;;;;;;15.70;99.90;;;14.34;98.61;96369.31;10471379;28;1973;-72
2022/07/13 03:25:50;;;;;;;;;;;15.60;99.90;;;14.29;99.10;96370.16;10467098;28;1557;-71
2022/07/13 03:30:54;;;;;;;;;;;15.50;99.90;;;14.28;99.66;96362.31;10466941;28;1435;-72
2022/07/13 03:35:57;;;;;;;;;;;15.40;99.90;;;14.38;99.55;96367.66;10463565;28;1779;-72
2022/07/13 03:41:00;;;;;;;;;;;15.40;99.90;;;14.43;99.41;96364.88;10468908;28;1977;-71
2022/07/13 03:46:03;;;;;;;;;;;15.50;99.90;;;14.65;98.85;96371.78;10466134;28;2048;-71
2022/07/13 03:51:07;;;;;;;;;;;15.60;99.90;;;14.95;97.48;96371.50;10466924;28;2053;-72
2022/07/13 03:56:10;;;;;;;;;;;15.70;99.90;;;15.16;96.12;96366.66;10466873;28;1894;-72
2022/07/13 04:01:13;;;;;;;;;;;16.00;99.90;;;15.53;94.01;96367.84;10471387;28;1937;-71
2022/07/13 04:06:16;;;;;;;;;;;16.20;99.90;;;15.76;92.14;96358.88;10481622;28;2136;-71
2022/07/13 04:11:20;;;;;;;;;;;16.50;99.90;;;16.01;90.14;96365.03;10474087;28;1564;-72
2022/07/13 04:16:24;;;;;;;;;;;16.70;99.90;;;16.22;89.06;96358.19;10484357;28;1624;-71
2022/07/13 04:21:27;;;;;;;;;;;16.90;99.90;;;16.44;87.19;96344.84;10470082;28;1994;-71
2022/07/13 04:26:30;;;;;;;;;;;17.10;99.90;;;16.63;86.17;96339.34;10466824;28;1948;-72
2022/07/13 04:31:33;;;;;;;;;;;17.30;99.90;;;16.94;84.21;96349.72;10471532;28;2032;-72
2022/07/13 04:36:37;;;;;;;;;;;17.50;99.90;;;17.23;81.85;96342.06;10467817;28;1872;-73
2022/07/13 04:41:41;;;;;;;;;;;17.80;99.90;;;17.37;80.71;96335.81;10467310;28;1963;-73
2022/07/13 04:46:43;;;;;;;;;;;18.00;99.90;;;17.64;79.78;96333.09;10470444;28;2030;-73
2022/07/13 04:51:47;;;;;;;;;;;18.20;99.90;;;17.88;77.90;96335.59;10467730;28;1915;-72
2022/07/13 04:56:50;;;;;;;;;;;18.50;99.90;;;18.18;76.06;96334.06;10466953;28;1924;-72
2022/07/13 05:01:53;;;;;;;;;;;18.70;99.90;;;18.31;74.98;96327.75;10482084;28;2034;-72
2022/07/13 05:06:56;;;;;;;;;;;19.00;99.90;;;18.92;71.80;96319.97;10469198;28;1902;-73
2022/07/13 05:11:59;;;;;;;;;;;19.30;99.90;;;19.16;70.77;96325.88;10472511;28;1915;-73
2022/07/13 05:17:02;;;;;;;;;;;19.60;99.90;;;19.12;70.55;96318.63;10478732;28;1930;-73
2022/07/13 05:22:05;;;;;;;;;;;19.80;99.90;;;19.54;68.16;96316.34;10476928;28;1950;-72
2022/07/13 05:27:13;;;;;;;;;;;20.00;99.90;;;19.63;67.13;96319.94;10475102;28;1915;-72
2022/07/13 05:32:16;;;;;;;;;;;20.20;99.90;;;20.15;65.28;96328.94;10470865;28;2075;-73
2022/07/13 05:37:19;;;;;;;;;;;20.50;99.90;;;20.56;63.84;96332.34;10471772;28;1975;-73
2022/07/13 05:42:22;;;;;;;;;;;20.90;99.90;;;20.83;62.24;96326.50;10465668;28;1939;-73
2022/07/13 05:47:25;;;;;;;;;;;21.20;99.90;;;21.18;59.34;96326.34;10465795;28;1820;-74
2022/07/13 05:52:28;;;;;;;;;;;21.50;99.90;;;21.28;59.74;96320.53;10468911;28;1942;-71
2022/07/13 05:57:32;;;;;;;;;;;21.70;99.90;;;21.66;57.77;96319.72;10467995;28;2022;-71
2022/07/13 06:02:35;;;;;;;;;;;22.40;99.90;;;21.95;56.29;96306.00;10465299;28;1989;-72
2022/07/13 06:07:37;;;;;;;;;;;22.30;99.90;;;22.23;55.30;96306.28;10463889;28;1988;-72
2022/07/13 06:12:40;;;;;;;;;;;22.50;99.90;;;22.30;54.95;96300.25;10457835;28;1966;-71
2022/07/13 06:17:44;;;;;;;;;;;22.90;99.90;;;22.45;54.08;96282.38;10471610;28;1898;-73
2022/07/13 06:23:09;;;;;;;;;;;23.00;99.90;;;22.67;52.80;96284.75;10460649;28;2113;-74
2022/07/13 06:28:10;;;;;;;;;;;23.20;99.90;;;23.00;52.30;96295.69;10467732;28;2123;-74
2022/07/13 06:33:13;;;;;;;;;;;23.40;99.90;;;23.35;50.22;96287.00;10471482;28;1898;-74
2022/07/13 06:38:15;;;;;;;;;;;23.60;99.90;;;23.54;48.87;96283.69;10471116;28;1962;-73
2022/07/13 06:43:19;;;;;;;;;;;23.80;99.90;;;24.04;47.53;96286.03;10466807;28;2069;-73
2022/07/13 06:48:22;;;;;;;;;;;24.10;99.90;;;23.69;47.30;96281.09;10473551;28;1907;-74
2022/07/13 06:53:25;;;;;;;;;;;24.40;99.90;;;24.40;46.77;96273.34;10461925;28;1950;-73
2022/07/13 06:58:28;;;;;;;;;;;24.60;99.90;;;24.47;45.96;96270.78;10470939;28;1904;-74
2022/07/13 07:03:30;;;;;;;;;;;24.80;99.90;;;24.64;44.73;96275.97;10469298;28;1906;-73
2022/07/13 07:08:34;;;;;;;;;;;25.00;99.90;;;24.91;44.28;96276.28;10471751;28;1791;-73
2022/07/13 07:13:37;;;;;;;;;;;25.30;99.90;;;25.13;41.44;96281.19;10472854;28;1848;-73
2022/07/13 07:18:40;;;;;;;;;;;25.40;99.90;;;25.01;42.04;96282.06;10473208;28;1977;-73
2022/07/13 07:24:03;;;;;;;;;;;25.60;99.90;;;25.33;39.89;96288.38;10467691;28;1980;-74
2022/07/13 07:29:05;;;;;;;;;;;25.70;99.90;;;25.51;38.94;96282.47;10464613;28;1809;-73
2022/07/13 07:34:08;;;;;;;;;;;25.90;99.90;;;25.45;37.28;96281.16;10461732;28;1754;-74
2022/07/13 07:39:12;;;;;;;;;;;26.00;99.90;;;26.08;35.23;96286.53;10463108;28;1712;-74
2022/07/13 07:44:15;;;;;;;;;;;26.20;99.90;;;26.03;33.43;96281.34;10457416;28;1914;-73
2022/07/13 07:49:22;;;;;;;;;;;26.30;97.90;;;25.73;33.30;96272.78;10463608;28;1856;-73
2022/07/13 07:54:25;;;;;;;;;;;26.40;96.10;;;25.42;34.91;96271.66;10481578;28;1967;-74
2022/07/13 07:59:29;;;;;;;;;;;26.20;96.70;;;26.03;35.10;96279.38;10461876;28;1774;-73
2022/07/13 08:04:32;;;;;;;;;;;26.40;97.40;;;26.23;34.26;96268.34;10461430;28;1983;-75
2022/07/13 08:09:35;;;;;;;;;;;26.80;95.60;;;26.56;32.66;96265.09;10485186;28;1791;-76
2022/07/13 08:14:38;;;;;;;;;;;26.80;93.40;;;27.00;30.89;96262.75;10494356;28;1665;-76
2022/07/13 08:19:42;;;;;;;;;;;27.30;92.00;;;26.80;31.65;96269.47;10466033;28;1863;-76
2022/07/13 08:24:45;;;;;;;;;;;27.20;90.80;;;27.02;30.19;96267.88;10461656;28;1914;-75
2022/07/13 08:29:48;;;;;;;;;;;27.30;89.50;;;27.19;30.89;96270.19;10462730;28;1762;-74
2022/07/13 08:40:13;;;;;;;;;;;27.60;89.60;;;28.13;31.24;96264.88;10472656;28;1740;-76
2022/07/13 08:45:16;;;;;;;;;;;28.10;90.30;;;27.65;29.84;96259.84;10471096;28;1906;-76
2022/07/13 08:50:19;;;;;;;;;;;28.20;86.60;;;27.74;29.04;96252.16;10466520;28;1833;-76
2022/07/13 08:55:22;;;;;;;;;;;28.10;85.40;;;27.98;29.95;96261.91;10467032;28;1849;-76
2022/07/13 09:00:26;;;;;;;;;;;28.20;86.30;;;28.00;29.34;96259.59;10467965;28;1792;-75
2022/07/13 09:05:29;;;;;;;;;;;28.30;85.40;;;27.81;29.06;96262.50;10463405;28;1971;-74
2022/07/13 09:10:32;;;;;;;;;;;28.50;83.90;;;27.51;28.57;96261.63;10465332;28;1864;-75
2022/07/13 09:15:35;;;;;;;;;;;28.30;82.30;;;27.65;27.18;96259.84;10470048;28;1855;-75
2022/07/13 09:20:39;;;;;;;;;;;28.30;80.40;;;28.31;26.21;96257.63;10471238;28;1865;-76
2022/07/13 09:25:42;;;;;;;;;;;28.50;78.90;;;28.52;26.08;96262.63;10468343;28;1991;-77
2022/07/13 09:30:45;;;;;;;;;;;28.80;78.00;;;28.89;25.74;96259.84;10464865;28;1863;-75
2022/07/13 09:35:51;;;;;;;;;;;29.20;78.10;;;28.67;25.03;96263.56;10466429;28;1815;-76
2022/07/13 09:40:55;;;;;;;;;;;29.30;75.50;;;28.64;24.27;96262.38;10461673;28;2168;-75
2022/07/13 09:46:10;;;;;;;;;;;29.30;74.30;;;30.40;21.78;96259.72;10467233;28;1918;-76
2022/07/13 09:51:13;;;;;;;;;;;30.00;73.00;;;29.55;23.73;96258.06;10463794;28;1957;-75
2022/07/13 09:56:16;;;;;;;;;;;30.30;71.70;;;30.50;22.80;96253.44;10472186;28;1860;-75
2022/07/13 10:01:19;;;;;;;;;;;30.70;71.50;;;30.33;23.20;96252.19;10468876;28;1840;-75
2022/07/13 10:06:22;;;;;;;;;;;30.60;71.20;;;29.81;23.04;96259.81;10477324;28;1973;-75
2022/07/13 10:11:26;;;;;;;;;;;30.80;69.20;;;29.27;24.30;96257.84;10487253;28;1824;-75
2022/07/13 10:16:28;;;;;;;;;;;30.40;70.20;;;29.93;24.48;96250.41;10474270;28;1859;-76
2022/07/13 10:21:31;;;;;;;;;;;30.20;71.70;;;29.40;22.51;96256.38;10466169;28;1806;-75
2022/07/13 10:26:34;;;;;;;;;;;30.20;68.00;;;29.44;22.74;96254.41;10472756;28;1985;-76
2022/07/13 10:31:38;;;;;;;;;;;30.10;68.50;;;29.14;20.80;96248.22;10476248;28;1836;-75
2022/07/13 10:36:41;;;;;;;;;;;30.10;64.70;;;30.00;20.78;96250.44;10473306;28;1910;-75
2022/07/13 10:41:45;;;;;;;;;;;30.40;65.30;;;30.58;21.08;96243.94;10470178;28;1808;-75
2022/07/13 10:46:49;;;;;;;;;;;30.80;65.70;;;30.83;22.03;96246.00;10466589;28;1989;-75
2022/07/13 10:51:52;;;;;;;;;;;31.10;67.10;;;30.52;22.44;96248.28;10470387;28;1896;-75
2022/07/13 10:57:12;;;;;;;;;;;31.50;66.60;;;30.79;21.88;96246.00;10469771;28;1844;-75
2022/07/13 11:02:15;;;;;;;;;;;31.70;66.20;;;30.28;21.78;96249.78;10473860;28;1847;-75
2022/07/13 11:07:19;;;;;;;;;;;31.60;64.20;;;30.26;22.95;96229.97;10471266;28;1987;-77
2022/07/13 11:12:23;;;;;;;;;;;31.30;66.00;;;30.22;22.43;96222.81;10474201;28;1843;-75
2022/07/13 11:17:27;;;;;;;;;;;31.20;65.50;;;30.25;23.28;96216.50;10469252;28;1754;-76
2022/07/13 11:28:00;;;;;;;;;;;31.70;65.50;;;30.64;23.70;96203.53;10463715;28;1861;-79
2022/07/13 11:33:04;;;;;;;;;;;32.10;66.50;;;31.01;23.84;96205.19;10460567;28;1924;-74
2022/07/13 11:38:08;;;;;;;;;;;32.10;67.30;;;30.18;24.69;96205.41;10466027;28;1928;-75
2022/07/13 11:43:12;;;;;;;;;;;31.40;67.10;;;31.49;23.21;96207.56;10461058;28;1976;-74
2022/07/13 11:48:15;;;;;;;;;;;31.60;66.80;;;30.42;25.27;96196.38;10464384;28;1872;-74
2022/07/13 11:53:18;;;;;;;;;;;31.40;67.60;;;30.63;26.07;96204.72;10462348;28;1903;-75
2022/07/13 11:58:22;;;;;;;;;;;31.30;69.20;;;30.51;26.03;96198.75;10465628;28;1844;-75
2022/07/13 12:03:25;;;;;;;;;;;31.30;68.90;;;30.99;23.35;96188.16;10467784;28;2049;-74
2022/07/13 12:08:28;;;;;;;;;;;31.50;67.30;;;30.98;24.45;96180.97;10466703;28;1853;-75
2022/07/13 12:13:31;;;;;;;;;;;31.60;67.20;;;31.24;22.96;96167.91;10459354;28;1738;-73
2022/07/13 12:18:33;;;;;;;;;;;31.70;65.50;;;31.12;23.94;96175.44;10492520;28;1856;-74
2022/07/13 12:23:36;;;;;;;;;;;31.80;66.20;;;30.74;23.08;96157.59;10473255;28;1918;-74
2022/07/13 12:28:40;;;;;;;;;;;31.70;64.70;;;30.44;23.16;96146.81;10461146;28;2298;-74
2022/07/13 12:33:44;;;;;;;;;;;31.50;64.60;;;30.95;24.23;96151.25;10463504;28;1851;-73
2022/07/13 12:38:48;;;;;;;;;;;31.60;65.80;;;29.86;23.90;96147.81;10465792;28;1801;-74
2022/07/13 12:43:51;;;;;;;;;;;31.10;64.80;;;30.45;24.27;96134.53;10459514;28;1914;-76
2022/07/13 12:48:54;;;;;;;;;;;31.10;65.80;;;31.30;24.77;96124.66;10476441;28;1880;-73
2022/07/13 12:53:57;;;;;;;;;;;31.60;66.90;;;30.97;23.10;96115.56;10463926;28;2197;-73
2022/07/13 12:59:00;;;;;;;;;;;31.80;64.50;;;31.17;24.44;96127.81;10469031;28;2033;-75
2022/07/13 13:04:03;;;;;;;;;;;31.90;65.90;;;31.22;24.82;96118.31;10463889;28;1906;-74
2022/07/13 13:09:07;;;;;;;;;;;31.70;66.30;;;30.75;24.99;96117.56;10463447;28;1845;-74
2022/07/13 13:14:11;;;;;;;;;;;31.60;65.90;;;30.89;24.20;96098.13;10467368;28;1852;-75
2022/07/13 13:19:14;;;;;;;;;;;31.70;65.40;;;30.22;24.98;96106.38;10469141;28;1848;-76
2022/07/13 13:24:17;;;;;;;;;;;31.40;65.30;;;30.08;24.50;96096.81;10466824;28;1909;-75
2022/07/13 13:34:41;;;;;;;;;;;31.10;65.50;;;29.47;25.14;96079.16;10469908;28;1851;-74
2022/07/13 13:39:44;;;;;;;;;;;30.70;65.30;;;29.90;25.22;96073.78;10475562;28;1848;-74
2022/07/13 13:44:47;;;;;;;;;;;30.70;65.90;;;30.28;24.58;96074.28;10476350;28;1910;-75
2022/07/13 13:49:56;;;;;;;;;;;31.00;66.00;;;30.35;24.76;96068.78;10476340;28;1934;-75
2022/07/13 13:54:59;;;;;;;;;;;31.10;65.60;;;30.24;24.43;96065.97;10471694;28;2129;-75
2022/07/13 14:00:02;;;;;;;;;;;31.20;64.70;;;30.53;23.99;96066.00;10474228;28;1852;-75
2022/07/13 14:05:25;;;;;;;;;;;31.30;64.60;;;31.12;23.12;96052.50;10463312;28;1938;-74
2022/07/13 14:10:28;;;;;;;;;;;31.70;63.80;;;31.60;22.02;96049.97;10460142;22;3604;-78
2022/07/13 14:15:31;;;;;;;;;;;32.10;63.00;;;32.10;22.04;96044.16;10417426;28;1942;-76
2022/07/13 14:20:34;;;;;;;;;;;32.70;62.50;;;32.54;21.62;96045.47;10428619;28;1840;-82
2022/07/13 14:25:38;;;;;;;;;;;33.20;61.80;;;32.74;20.55;96049.25;10420677;28;1906;-82
2022/07/13 14:30:41;;;;;;;;;;;33.10;61.60;;;31.98;24.25;96048.19;10430555;28;2070;-81
2022/07/13 14:35:44;;;;;;;;;;;32.90;63.80;;;31.75;25.04;96028.47;10451862;28;1731;-83
2022/07/13 14:40:47;;;;;;;;;;;33.00;66.50;;;31.55;25.27;96025.38;10441665;28;2059;-81
2022/07/13 14:45:50;;;;;;;;;;;32.60;66.50;;;30.00;28.83;96019.59;10433838;28;1932;-83
2022/07/13 14:50:54;;;;;;;;;;;31.90;67.70;;;31.53;23.08;96016.66;10428721;28;2130;-84
2022/07/13 14:56:14;;;;;;;;;;;32.00;64.40;;;30.16;27.00;96000.63;10422396;28;1937;-82
2022/07/13 15:01:17;;;;;;;;;;;31.80;65.90;;;30.14;25.76;96008.53;10426962;28;1832;-83
2022/07/13 15:06:21;;;;;;;;;;;31.50;65.50;;;28.89;28.02;96004.50;10414589;28;1997;-82
2022/07/13 15:11:25;;;;;;;;;;;30.80;66.20;;;30.04;25.62;96001.78;10402590;28;1912;-82
2022/07/13 15:16:28;;;;;;;;;;;30.80;65.90;;;30.11;26.71;96006.56;10379936;28;1872;-82
2022/07/13 15:21:31;;;;;;;;;;;31.20;66.00;;;31.05;25.44;96008.06;10424402;28;1809;-84
2022/07/13 15:26:35;;;;;;;;;;;31.30;65.50;;;31.68;24.29;96000.69;10425091;28;1891;-82
2022/07/13 15:31:39;;;;;;;;;;;32.00;64.60;;;30.52;24.72;96004.19;10408192;28;1782;-85
2022/07/13 15:36:42;;;;;;;;;;;32.10;63.50;;;30.90;22.80;95999.78;10420201;28;1443;-82
2022/07/13 15:41:46;;;;;;;;;;;31.70;61.80;;;31.27;21.77;95992.16;10426653;28;1863;-85
2022/07/13 15:46:50;;;;;;;;;;;31.90;60.50;;;30.16;22.84;95992.31;10428314;28;1894;-84
2022/07/13 15:51:54;;;;;;;;;;;31.50;60.90;;;29.20;24.09;95992.00;10398622;28;1895;-83
2022/07/13 15:56:57;;;;;;;;;;;30.60;61.80;;;29.18;24.31;95988.84;10412553;28;2010;-83
2022/07/13 16:19:19;;;;;;;;;;;29.70;63.10;;;29.48;22.95;95981.06;10466196;28;1815;-79
2022/07/13 16:24:41;;;;;;;;;;;29.80;61.60;;;30.02;22.25;95993.03;10488085;28;1985;-79
2022/07/13 16:29:45;;;;;;;;;;;30.30;61.00;;;30.07;22.33;95989.88;10486105;28;1812;-79
2022/07/13 16:34:48;;;;;;;;;;;30.60;60.60;;;30.14;22.50;95978.81;10462108;28;1881;-77
2022/07/13 16:39:50;;;;;;;;;;;30.70;60.60;;;29.95;22.19;95984.72;10483889;28;1886;-78
2022/07/13 16:44:53;;;;;;;;;;;30.60;60.50;;;29.42;23.00;95979.84;10483234;28;1913;-78
2022/07/13 16:49:56;;;;;;;;;;;30.40;60.60;;;29.24;23.50;95979.78;10470904;28;1853;-77
2022/07/13 16:54:59;;;;;;;;;;;30.10;61.40;;;28.78;23.88;95994.16;10472705;28;1918;-80
2022/07/13 17:00:03;;;;;;;;;;;29.80;61.00;;;28.88;23.62;95989.06;10465788;28;1892;-79
2022/07/13 17:05:07;;;;;;;;;;;29.50;61.30;;;28.80;23.60;95979.94;10500322;28;1922;-78
2022/07/13 17:10:10;;;;;;;;;;;29.50;61.30;;;28.65;24.15;95983.81;10471552;28;1826;-76
2022/07/13 17:15:13;;;;;;;;;;;29.40;61.60;;;28.33;24.29;95983.59;10489093;28;1969;-78
2022/07/13 17:20:16;;;;;;;;;;;29.20;61.90;;;28.18;24.40;95979.84;10496056;28;1891;-76
2022/07/13 17:25:19;;;;;;;;;;;29.00;62.40;;;28.09;24.53;95977.44;10481278;28;1987;-77
2022/07/13 17:30:22;;;;;;;;;;;28.90;62.00;;;27.96;24.94;95973.38;10488060;28;1851;-77
2022/07/13 17:35:25;;;;;;;;;;;28.80;62.30;;;27.83;24.45;95978.38;10494319;28;1866;-78
2022/07/13 17:40:28;;;;;;;;;;;28.60;61.90;;;27.83;24.81;95972.88;10476149;28;1931;-78
2022/07/13 17:45:31;;;;;;;;;;;28.60;62.40;;;27.67;24.80;95975.03;10490074;28;1984;-77
2022/07/13 17:50:35;;;;;;;;;;;28.50;62.20;;;27.54;25.21;95971.75;10493163;28;1629;-76
2022/07/13 17:55:38;;;;;;;;;;;28.30;62.50;;;27.34;25.42;95968.38;10486402;28;1940;-77
2022/07/13 18:00:40;;;;;;;;;;;28.20;62.60;;;27.23;25.12;95964.72;10479196;28;1956;-75
2022/07/13 18:05:43;;;;;;;;;;;28.00;62.70;;;27.11;25.84;95964.97;10497681;28;1906;-77
2022/07/13 18:10:46;;;;;;;;;;;28.00;63.20;;;27.02;26.05;95956.13;10530144;28;1771;-77
2022/07/13 18:15:50;;;;;;;;;;;27.80;62.80;;;26.91;25.82;95956.81;10514920;28;1848;-77
2022/07/13 18:20:53;;;;;;;;;;;27.80;63.00;;;26.73;26.69;95961.31;10540028;28;1798;-77
2022/07/13 18:25:57;;;;;;;;;;;27.60;63.60;;;26.58;27.05;95965.81;10492285;28;2113;-74
2022/07/13 18:31:00;;;;;;;;;;;27.40;64.10;;;26.44;27.86;95951.81;10494658;28;1823;-78
2022/07/13 18:36:03;;;;;;;;;;;27.30;64.80;;;26.38;28.00;95956.81;10490097;28;1891;-76
2022/07/13 18:41:07;;;;;;;;;;;27.20;65.50;;;26.21;28.72;95951.03;10463049;28;1790;-77
2022/07/13 18:46:13;;;;;;;;;;;27.00;66.30;;;26.11;29.36;95960.75;10501858;28;1913;-77
2022/07/13 18:51:16;;;;;;;;;;;27.00;67.10;;;26.03;28.79;95962.59;10470189;28;1810;-79
2022/07/13 18:56:19;;;;;;;;;;;26.90;66.10;;;25.88;28.28;95966.25;10492979;28;1782;-77
2022/07/13 19:01:21;;;;;;;;;;;26.80;65.60;;;25.78;28.13;95966.88;10497708;28;1777;-79
2022/07/13 19:06:25;;;;;;;;;;;26.60;65.00;;;25.71;27.73;95966.72;10497026;28;1984;-78
2022/07/13 19:11:28;;;;;;;;;;;26.60;64.90;;;25.49;26.81;95969.09;10482748;28;1845;-75
2022/07/13 19:16:30;;;;;;;;;;;26.40;63.70;;;25.27;26.69;95967.09;10467061;28;1867;-75
2022/07/13 19:21:33;;;;;;;;;;;26.30;63.60;;;25.24;26.25;95963.09;10474926;28;1846;-75
2022/07/13 19:31:58;;;;;;;;;;;26.10;62.80;;;25.05;25.82;95974.13;10458656;28;1817;-73
2022/07/13 19:37:01;;;;;;;;;;;26.00;62.50;;;24.88;26.06;95988.28;10476847;28;1838;-75
2022/07/13 19:42:04;;;;;;;;;;;25.80;62.30;;;24.71;26.73;95998.53;10477324;28;1821;-75
2022/07/13 19:47:07;;;;;;;;;;;25.70;62.80;;;24.60;26.96;96002.97;10479719;28;2016;-75
2022/07/13 19:52:11;;;;;;;;;;;25.60;63.40;;;24.38;27.79;96006.41;10476999;28;1798;-78
2022/07/13 19:57:14;;;;;;;;;;;25.50;64.10;;;24.17;28.68;96006.63;10467664;28;1821;-78
2022/07/13 20:02:20;;;;;;;;;;;25.30;64.80;;;23.98;29.67;95999.09;10472290;28;1819;-78
2022/07/13 20:07:23;;;;;;;;;;;25.10;65.90;;;23.97;29.86;96000.25;10474211;28;1952;-79
2022/07/13 20:12:27;;;;;;;;;;;25.00;66.70;;;23.80;30.18;96011.63;10467457;28;1841;-78
2022/07/13 20:17:30;;;;;;;;;;;24.80;67.00;;;23.54;30.79;96014.78;10467203;28;1815;-78
2022/07/13 20:22:34;;;;;;;;;;;24.70;67.40;;;23.27;31.82;96019.94;10469246;28;1771;-78
2022/07/13 20:27:37;;;;;;;;;;;24.40;68.10;;;23.15;32.19;96017.25;10471374;28;1914;-77
2022/07/13 20:32:40;;;;;;;;;;;24.20;68.90;;;23.17;32.39;96014.97;10471418;28;1889;-77
2022/07/13 20:37:43;;;;;;;;;;;24.10;69.40;;;23.14;32.72;96016.44;10493488;28;1937;-76
2022/07/13 20:42:47;;;;;;;;;;;24.10;69.80;;;23.04;33.14;96016.16;10473232;28;1895;-76
2022/07/13 20:47:50;;;;;;;;;;;24.00;70.00;;;23.04;33.13;96011.47;10490609;28;1949;-78
2022/07/13 20:52:53;;;;;;;;;;;23.90;70.30;;;23.06;33.23;96014.66;10471958;28;1875;-78
2022/07/13 20:57:55;;;;;;;;;;;23.90;70.60;;;23.16;33.65;96008.69;10485807;28;1844;-78
2022/07/13 21:02:59;;;;;;;;;;;23.90;71.20;;;23.11;34.11;96011.69;10466460;28;1856;-78
2022/07/13 21:08:02;;;;;;;;;;;24.00;71.50;;;23.02;34.44;96008.25;10490261;28;1910;-79
2022/07/13 21:13:04;;;;;;;;;;;23.90;71.90;;;22.94;35.03;96003.72;10489348;28;1934;-77
2022/07/13 21:18:07;;;;;;;;;;;23.90;72.60;;;22.95;35.63;96004.53;10468839;28;2033;-78
2022/07/13 21:23:12;;;;;;;;;;;23.80;73.30;;;22.89;36.49;96004.75;10478170;28;1912;-78
2022/07/13 21:28:15;;;;;;;;;;;23.80;74.00;;;22.88;36.83;96013.34;10480353;28;1980;-78
2022/07/13 21:33:19;;;;;;;;;;;23.70;74.60;;;22.75;37.23;96025.44;10473112;28;1816;-77
2022/07/13 21:38:22;;;;;;;;;;;23.70;75.00;;;22.69;37.43;96022.16;10491873;28;1834;-77
2022/07/13 21:43:26;;;;;;;;;;;23.60;75.10;;;22.70;38.16;96022.94;10495309;28;1975;-77
2022/07/13 21:48:29;;;;;;;;;;;23.60;75.90;;;22.73;38.56;96012.09;10470963;28;1944;-77
2022/07/13 21:53:32;;;;;;;;;;;23.60;76.50;;;22.72;39.03;96009.72;10503025;28;1834;-78
2022/07/13 21:58:35;;;;;;;;;;;23.50;76.90;;;22.66;39.74;96012.69;10488001;28;1876;-79
2022/07/13 22:03:38;;;;;;;;;;;23.50;77.80;;;22.56;40.54;96009.59;10488874;28;1811;-78
2022/07/13 22:08:41;;;;;;;;;;;23.40;78.60;;;22.53;41.06;96013.84;10503800;28;1922;-76
2022/07/13 22:13:43;;;;;;;;;;;23.40;79.20;;;22.51;41.32;96007.91;10500832;28;1918;-76
2022/07/13 22:18:47;;;;;;;;;;;23.30;79.80;;;22.44;41.61;96002.19;10485843;28;1771;-78
2022/07/13 22:23:51;;;;;;;;;;;23.30;80.20;;;22.40;41.65;96006.78;10483501;28;1917;-82
2022/07/13 22:28:54;;;;;;;;;;;23.20;80.20;;;22.27;41.93;96006.00;10504759;28;1902;-78
2022/07/13 22:33:57;;;;;;;;;;;23.20;80.20;;;22.16;42.09;95998.56;10485582;28;1790;-77
2022/07/13 22:39:00;;;;;;;;;;;23.10;80.30;;;22.18;41.98;95996.28;10492777;28;1859;-77
2022/07/13 22:44:02;;;;;;;;;;;23.00;80.40;;;22.13;42.02;96009.06;10503723;28;1818;-78
2022/07/13 22:49:05;;;;;;;;;;;23.00;80.50;;;22.13;42.33;96000.84;10504900;28;1974;-77
2022/07/13 22:54:08;;;;;;;;;;;23.00;80.80;;;22.08;42.41;95992.84;10480459;28;2106;-76
2022/07/13 22:59:12;;;;;;;;;;;23.00;80.80;;;22.11;42.36;96000.41;10498858;28;1892;-77
2022/07/13 23:04:15;;;;;;;;;;;23.00;81.10;;;22.11;42.39;96000.41;10505075;28;1989;-78
2022/07/13 23:09:18;;;;;;;;;;;22.90;81.30;;;22.10;42.11;96001.53;10481857;28;1910;-77
2022/07/13 23:14:21;;;;;;;;;;;23.00;80.90;;;22.02;42.16;96005.16;10482148;28;1998;-77
2022/07/13 23:19:24;;;;;;;;;;;22.90;80.70;;;21.98;41.58;95998.75;10500917;28;1949;-79
2022/07/13 23:24:26;;;;;;;;;;;22.80;80.50;;;21.85;41.76;95986.22;10483623;28;1927;-79
2022/07/13 23:29:29;;;;;;;;;;;22.80;80.40;;;21.81;42.06;95977.88;10480221;28;1993;-76
2022/07/13 23:34:32;;;;;;;;;;;22.70;80.70;;;21.74;41.61;95979.56;10501275;28;1889;-78
2022/07/13 23:39:35;;;;;;;;;;;22.60;80.30;;;21.81;41.76;95977.06;10482890;28;1983;-77
2022/07/13 23:44:38;;;;;;;;;;;22.60;80.50;;;21.72;42.57;95970.91;10501119;28;1810;-78
2022/07/13 23:49:41;;;;;;;;;;;22.60;81.10;;;21.70;42.32;95976.75;10480710;28;2242;-77
2022/07/13 23:54:43;;;;;;;;;;;22.60;81.10;;;21.70;42.74;95976.75;10515522;28;1857;-77